M I D A S
Marine Information and Data Acquisition System
Tripno 1790 of the Zeeleeuw from 2009-09-25 08:00:00 to 2009-09-25 17:00:00
Back to CruiseResearch ActivitiesStationsMapUnderway DataData graphs

EquipmentUnitsComment
TimeDGPSUTC
LatitudeDGPSDM.mWGS84
LongitudeDGPSDM.mWGS84
HeadingGyrodeg 
SOGDGPSknotsSpeed over ground
COGDGPSdegCourse over ground
DepthEcho soundermeters200 kHz
Missing or incorrect values are displayed as -999
Navigation data collected by the RV Zeeleeuw from 2009-09-25 08:00:00 to 2009-09-25 17:00:00
                                                                                    Next 1000 lines
Time Latitude Longitude Heading SOG COG Depth
2009-09-25 08:00:20 51°23.739 2°29.793 299.3 1.89 315 -999
2009-09-25 08:00:30 51°23.74 2°29.795 299.3 1.89 315 -999
2009-09-25 08:00:40 51°23.741 2°29.8 299.3 1.89 315 -999
2009-09-25 08:00:50 51°23.74 2°29.806 299.3 1.89 315 -999
2009-09-25 08:01:00 51°23.74 2°29.811 307.1 1.1 101 -999
2009-09-25 08:01:10 51°23.739 2°29.816 307.1 1.1 101 -999
2009-09-25 08:01:20 51°23.739 2°29.821 307.1 1.1 101 -999
2009-09-25 08:01:30 51°23.738 2°29.826 307.1 1.1 101 -999
2009-09-25 08:01:40 51°23.738 2°29.831 307.1 1.1 101 -999
2009-09-25 08:01:50 51°23.737 2°29.835 307.1 1.1 101 -999
2009-09-25 08:02:00 51°23.736 2°29.84 320.1 1.1 107 -999
2009-09-25 08:02:10 51°23.735 2°29.844 320.1 1.1 107 -999
2009-09-25 08:02:20 51°23.734 2°29.849 320.1 1.1 107 -999
2009-09-25 08:02:30 51°23.734 2°29.853 320.1 1.1 107 -999
2009-09-25 08:02:40 51°23.734 2°29.856 320.1 1.1 107 -999
2009-09-25 08:02:50 51°23.735 2°29.858 320.1 1.1 107 -999
2009-09-25 08:03:00 51°23.737 2°29.859 327.8 0.8 13 -999
2009-09-25 08:03:10 51°23.74 2°29.859 327.8 0.8 13 -999
2009-09-25 08:03:20 51°23.743 2°29.858 327.8 0.8 13 -999
2009-09-25 08:03:30 51°23.746 2°29.856 327.8 0.8 13 -999
2009-09-25 08:03:40 51°23.749 2°29.854 327.8 0.8 13 -999
2009-09-25 08:03:50 51°23.752 2°29.853 327.8 0.8 13 -999
2009-09-25 08:04:00 51°23.756 2°29.852 305.5 1.19 347 -999
2009-09-25 08:04:10 51°23.758 2°29.852 305.5 1.19 347 -999
2009-09-25 08:04:20 51°23.759 2°29.856 305.5 1.19 347 -999
2009-09-25 08:04:30 51°23.759 2°29.862 305.5 1.19 347 -999
2009-09-25 08:04:40 51°23.759 2°29.867 305.5 1.19 347 -999
2009-09-25 08:04:50 51°23.759 2°29.871 305.5 1.19 347 -999
2009-09-25 08:05:00 51°23.761 2°29.873 306.3 0.8 359 -999
2009-09-25 08:05:10 51°23.763 2°29.871 306.3 0.8 359 -999
2009-09-25 08:05:20 51°23.766 2°29.868 306.3 0.8 359 -999
2009-09-25 08:05:30 51°23.769 2°29.863 306.3 0.8 359 -999
2009-09-25 08:05:40 51°23.771 2°29.857 306.3 0.8 359 -999
2009-09-25 08:05:50 51°23.773 2°29.85 306.3 0.8 359 -999
2009-09-25 08:06:00 51°23.774 2°29.843 267.5 1.8 285 -999
2009-09-25 08:06:10 51°23.775 2°29.835 267.5 1.8 285 -999
2009-09-25 08:06:20 51°23.774 2°29.827 267.5 1.8 285 -999
2009-09-25 08:06:30 51°23.773 2°29.82 267.5 1.8 285 -999
2009-09-25 08:06:40 51°23.772 2°29.814 267.5 1.8 285 -999
2009-09-25 08:06:50 51°23.771 2°29.808 267.5 1.8 285 -999
2009-09-25 08:07:00 51°23.769 2°29.803 228 1.19 244 -999
2009-09-25 08:07:10 51°23.768 2°29.799 228 1.19 244 -999
2009-09-25 08:07:20 51°23.767 2°29.795 228 1.19 244 -999
2009-09-25 08:07:30 51°23.765 2°29.792 228 1.19 244 -999
2009-09-25 08:07:40 51°23.764 2°29.789 228 1.19 244 -999
2009-09-25 08:07:50 51°23.763 2°29.787 228 1.19 244 -999
2009-09-25 08:08:00 51°23.761 2°29.785 208.9 0.59 222 -999
2009-09-25 08:08:10 51°23.76 2°29.784 208.9 0.59 222 -999
2009-09-25 08:08:20 51°23.758 2°29.783 208.9 0.59 222 -999
2009-09-25 08:08:30 51°23.757 2°29.782 208.9 0.59 222 -999
2009-09-25 08:08:40 51°23.755 2°29.783 208.9 0.59 222 -999
2009-09-25 08:08:50 51°23.754 2°29.783 208.9 0.59 222 -999
2009-09-25 08:09:00 51°23.754 2°29.784 180.5 0.4 140 -999
2009-09-25 08:09:10 51°23.753 2°29.785 180.5 0.4 140 -999
2009-09-25 08:09:20 51°23.753 2°29.786 180.5 0.4 140 -999
2009-09-25 08:09:30 51°23.752 2°29.788 180.5 0.4 140 -999
2009-09-25 08:09:40 51°23.752 2°29.79 180.5 0.4 140 -999
2009-09-25 08:09:50 51°23.752 2°29.792 180.5 0.4 140 -999
2009-09-25 08:10:00 51°23.751 2°29.794 162.8 0.59 109 -999
2009-09-25 08:10:10 51°23.751 2°29.796 162.8 0.59 109 -999
2009-09-25 08:10:20 51°23.75 2°29.799 162.8 0.59 109 -999
2009-09-25 08:10:30 51°23.749 2°29.802 162.8 0.59 109 -999
2009-09-25 08:10:40 51°23.748 2°29.804 162.8 0.59 109 -999
2009-09-25 08:10:50 51°23.747 2°29.807 162.8 0.59 109 -999
2009-09-25 08:11:00 51°23.747 2°29.81 155 0.59 107 -999
2009-09-25 08:11:10 51°23.746 2°29.813 155 0.59 107 -999
2009-09-25 08:11:20 51°23.745 2°29.816 155 0.59 107 -999
2009-09-25 08:11:30 51°23.744 2°29.819 155 0.59 107 -999
2009-09-25 08:11:40 51°23.743 2°29.821 155 0.59 107 -999
2009-09-25 08:11:50 51°23.743 2°29.824 155 0.59 107 -999
2009-09-25 08:12:00 51°23.742 2°29.827 154.8 0.59 108 -999
2009-09-25 08:12:10 51°23.742 2°29.829 154.8 0.59 108 -999
2009-09-25 08:12:20 51°23.742 2°29.832 154.8 0.59 108 -999
2009-09-25 08:12:30 51°23.742 2°29.835 154.8 0.59 108 -999
2009-09-25 08:12:40 51°23.741 2°29.837 154.8 0.59 108 -999
2009-09-25 08:12:50 51°23.742 2°29.84 154.8 0.59 108 -999
2009-09-25 08:13:00 51°23.742 2°29.842 155.5 0.59 88 -999
2009-09-25 08:13:10 51°23.742 2°29.844 155.5 0.59 88 -999
2009-09-25 08:13:20 51°23.742 2°29.846 155.5 0.59 88 -999
2009-09-25 08:13:30 51°23.742 2°29.849 155.5 0.59 88 -999
2009-09-25 08:13:40 51°23.742 2°29.851 155.5 0.59 88 -999
2009-09-25 08:13:50 51°23.742 2°29.853 155.5 0.59 88 -999
2009-09-25 08:14:00 51°23.742 2°29.855 156.1 0.5 84 -999
2009-09-25 08:14:10 51°23.743 2°29.857 156.1 0.5 84 -999
2009-09-25 08:14:20 51°23.743 2°29.859 156.1 0.5 84 -999
2009-09-25 08:14:30 51°23.743 2°29.861 156.1 0.5 84 -999
2009-09-25 08:14:40 51°23.743 2°29.863 156.1 0.5 84 -999
2009-09-25 08:14:50 51°23.744 2°29.865 156.1 0.5 84 -999
2009-09-25 08:15:00 51°23.745 2°29.867 154.5 0.5 68 -999
2009-09-25 08:15:10 51°23.745 2°29.868 154.5 0.5 68 -999
2009-09-25 08:15:20 51°23.746 2°29.87 154.5 0.5 68 -999
2009-09-25 08:15:30 51°23.747 2°29.872 154.5 0.5 68 -999
2009-09-25 08:15:40 51°23.747 2°29.873 154.5 0.5 68 -999
2009-09-25 08:15:50 51°23.747 2°29.875 154.5 0.5 68 -999
2009-09-25 08:16:00 51°23.748 2°29.877 153.8 0.4 69 -999
2009-09-25 08:16:10 51°23.748 2°29.879 153.8 0.4 69 -999
2009-09-25 08:16:20 51°23.748 2°29.881 153.8 0.4 69 -999
2009-09-25 08:16:30 51°23.748 2°29.883 153.8 0.4 69 -999
2009-09-25 08:16:40 51°23.749 2°29.885 153.8 0.4 69 -999
2009-09-25 08:16:50 51°23.748 2°29.888 153.8 0.4 69 -999
2009-09-25 08:17:00 51°23.745 2°29.891 160.8 1.19 156 -999
2009-09-25 08:17:10 51°23.741 2°29.893 160.8 1.19 156 -999
2009-09-25 08:17:20 51°23.737 2°29.894 160.8 1.19 156 -999
2009-09-25 08:17:30 51°23.732 2°29.893 160.8 1.19 156 -999
2009-09-25 08:17:40 51°23.727 2°29.891 160.8 1.19 156 -999
2009-09-25 08:17:50 51°23.722 2°29.887 160.8 1.19 156 -999
2009-09-25 08:18:00 51°23.718 2°29.881 214.1 2 223 -999
2009-09-25 08:18:10 51°23.715 2°29.874 214.1 2 223 -999
2009-09-25 08:18:20 51°23.712 2°29.865 214.1 2 223 -999
2009-09-25 08:18:30 51°23.711 2°29.856 214.1 2 223 -999
2009-09-25 08:18:40 51°23.71 2°29.85 214.1 2 223 -999
2009-09-25 08:18:50 51°23.71 2°29.845 214.1 2 223 -999
2009-09-25 08:19:00 51°23.711 2°29.843 264.3 0.5 304 -999
2009-09-25 08:19:10 51°23.712 2°29.843 264.3 0.5 304 -999
2009-09-25 08:19:20 51°23.713 2°29.843 264.3 0.5 304 -999
2009-09-25 08:19:30 51°23.714 2°29.843 264.3 0.5 304 -999
2009-09-25 08:19:40 51°23.715 2°29.843 264.3 0.5 304 -999
2009-09-25 08:19:50 51°23.717 2°29.842 264.3 0.5 304 -999
2009-09-25 08:20:00 51°23.718 2°29.84 291.8 0.9 321 -999
2009-09-25 08:20:10 51°23.721 2°29.836 291.8 0.9 321 -999
2009-09-25 08:20:20 51°23.723 2°29.832 291.8 0.9 321 -999
2009-09-25 08:20:30 51°23.726 2°29.828 291.8 0.9 321 -999
2009-09-25 08:20:40 51°23.728 2°29.824 291.8 0.9 321 -999
2009-09-25 08:20:50 51°23.732 2°29.819 291.8 0.9 321 -999
2009-09-25 08:21:00 51°23.735 2°29.814 301.1 1.69 319 -999
2009-09-25 08:21:10 51°23.738 2°29.808 301.1 1.69 319 -999
2009-09-25 08:21:20 51°23.741 2°29.804 301.1 1.69 319 -999
2009-09-25 08:21:30 51°23.744 2°29.799 301.1 1.69 319 -999
2009-09-25 08:21:40 51°23.747 2°29.794 301.1 1.69 319 -999
2009-09-25 08:21:50 51°23.75 2°29.79 301.1 1.69 319 -999
2009-09-25 08:22:00 51°23.752 2°29.786 295 1.3 313 -999
2009-09-25 08:22:10 51°23.755 2°29.781 295 1.3 313 -999
2009-09-25 08:22:20 51°23.757 2°29.777 295 1.3 313 -999
2009-09-25 08:22:30 51°23.76 2°29.772 295 1.3 313 -999
2009-09-25 08:22:40 51°23.763 2°29.763 295 1.3 313 -999
2009-09-25 08:22:50 51°23.766 2°29.754 295 1.3 313 -999
2009-09-25 08:23:00 51°23.769 2°29.744 286.1 2.5 293 -999
2009-09-25 08:23:10 51°23.772 2°29.734 286.1 2.5 293 -999
2009-09-25 08:23:20 51°23.775 2°29.724 286.1 2.5 293 -999
2009-09-25 08:23:30 51°23.778 2°29.713 286.1 2.5 293 -999
2009-09-25 08:23:40 51°23.78 2°29.704 286.1 2.5 293 -999
2009-09-25 08:23:50 51°23.783 2°29.695 286.1 2.5 293 -999
2009-09-25 08:24:00 51°23.786 2°29.686 285.1 2.1 297 -999
2009-09-25 08:24:10 51°23.789 2°29.679 285.1 2.1 297 -999
2009-09-25 08:24:20 51°23.791 2°29.672 285.1 2.1 297 -999
2009-09-25 08:24:30 51°23.794 2°29.665 285.1 2.1 297 -999
2009-09-25 08:24:40 51°23.797 2°29.658 285.1 2.1 297 -999
2009-09-25 08:24:50 51°23.8 2°29.65 285.1 2.1 297 -999
2009-09-25 08:25:00 51°23.804 2°29.642 293.6 2.1 308 -999
2009-09-25 08:25:10 51°23.807 2°29.634 293.6 2.1 308 -999
2009-09-25 08:25:20 51°23.81 2°29.626 293.6 2.1 308 -999
2009-09-25 08:25:30 51°23.813 2°29.618 293.6 2.1 308 -999
2009-09-25 08:25:40 51°23.816 2°29.609 293.6 2.1 308 -999
2009-09-25 08:25:50 51°23.818 2°29.6 293.6 2.1 308 -999
2009-09-25 08:26:00 51°23.821 2°29.591 286.1 2.2 289 -999
2009-09-25 08:26:10 51°23.824 2°29.582 286.1 2.2 289 -999
2009-09-25 08:26:20 51°23.826 2°29.572 286.1 2.2 289 -999
2009-09-25 08:26:30 51°23.829 2°29.562 286.1 2.2 289 -999
2009-09-25 08:26:40 51°23.831 2°29.553 286.1 2.2 289 -999
2009-09-25 08:26:50 51°23.833 2°29.543 286.1 2.2 289 -999
2009-09-25 08:27:00 51°23.835 2°29.533 278 2.29 286 -999
2009-09-25 08:27:10 51°23.836 2°29.523 278 2.29 286 -999
2009-09-25 08:27:20 51°23.836 2°29.511 278 2.29 286 -999
2009-09-25 08:27:30 51°23.835 2°29.5 278 2.29 286 -999
2009-09-25 08:27:40 51°23.833 2°29.488 278 2.29 286 -999
2009-09-25 08:27:50 51°23.829 2°29.478 278 2.29 286 -999
2009-09-25 08:28:00 51°23.825 2°29.471 226.1 2.2 228 -999
2009-09-25 08:28:10 51°23.821 2°29.465 226.1 2.2 228 -999
2009-09-25 08:28:20 51°23.816 2°29.459 226.1 2.2 228 -999
2009-09-25 08:28:30 51°23.812 2°29.456 226.1 2.2 228 -999
2009-09-25 08:28:40 51°23.807 2°29.454 226.1 2.2 228 -999
2009-09-25 08:28:50 51°23.803 2°29.453 226.1 2.2 228 -999
2009-09-25 08:29:00 51°23.799 2°29.454 177.5 1.39 175 -999
2009-09-25 08:29:10 51°23.795 2°29.455 177.5 1.39 175 -999
2009-09-25 08:29:20 51°23.792 2°29.457 177.5 1.39 175 -999
2009-09-25 08:29:30 51°23.789 2°29.46 177.5 1.39 175 -999
2009-09-25 08:29:40 51°23.786 2°29.464 177.5 1.39 175 -999
2009-09-25 08:29:50 51°23.784 2°29.468 177.5 1.39 175 -999
2009-09-25 08:30:00 51°23.782 2°29.473 133.5 1.19 121 -999
2009-09-25 08:30:10 51°23.781 2°29.477 133.5 1.19 121 -999
2009-09-25 08:30:20 51°23.78 2°29.482 133.5 1.19 121 -999
2009-09-25 08:30:30 51°23.779 2°29.486 133.5 1.19 121 -999
2009-09-25 08:30:40 51°23.779 2°29.491 133.5 1.19 121 -999
2009-09-25 08:30:50 51°23.779 2°29.495 133.5 1.19 121 -999
2009-09-25 08:31:00 51°23.779 2°29.499 116.9 0.9 96 -999
2009-09-25 08:31:10 51°23.778 2°29.503 116.9 0.9 96 -999
2009-09-25 08:31:20 51°23.778 2°29.507 116.9 0.9 96 -999
2009-09-25 08:31:30 51°23.778 2°29.51 116.9 0.9 96 -999
2009-09-25 08:31:40 51°23.778 2°29.513 116.9 0.9 96 -999
2009-09-25 08:31:50 51°23.779 2°29.516 116.9 0.9 96 -999
2009-09-25 08:32:00 51°23.779 2°29.519 122.2 0.59 88 -999
2009-09-25 08:32:10 51°23.779 2°29.522 122.2 0.59 88 -999
2009-09-25 08:32:20 51°23.779 2°29.525 122.2 0.59 88 -999
2009-09-25 08:32:30 51°23.779 2°29.528 122.2 0.59 88 -999
2009-09-25 08:32:40 51°23.779 2°29.53 122.2 0.59 88 -999
2009-09-25 08:32:50 51°23.779 2°29.532 122.2 0.59 88 -999
2009-09-25 08:33:00 51°23.78 2°29.534 128.5 0.5 73 -999
2009-09-25 08:33:10 51°23.78 2°29.536 128.5 0.5 73 -999
2009-09-25 08:33:20 51°23.78 2°29.538 128.5 0.5 73 -999
2009-09-25 08:33:30 51°23.781 2°29.54 128.5 0.5 73 -999
2009-09-25 08:33:40 51°23.781 2°29.542 128.5 0.5 73 -999
2009-09-25 08:33:50 51°23.782 2°29.544 128.5 0.5 73 -999
2009-09-25 08:34:00 51°23.782 2°29.545 132.9 0.4 61 -999
2009-09-25 08:34:10 51°23.783 2°29.546 132.9 0.4 61 -999
2009-09-25 08:34:20 51°23.783 2°29.547 132.9 0.4 61 -999
2009-09-25 08:34:30 51°23.784 2°29.549 132.9 0.4 61 -999
2009-09-25 08:34:40 51°23.784 2°29.55 132.9 0.4 61 -999
2009-09-25 08:34:50 51°23.785 2°29.552 132.9 0.4 61 -999
2009-09-25 08:35:00 51°23.786 2°29.552 135.8 0.5 42 -999
2009-09-25 08:35:10 51°23.786 2°29.553 135.8 0.5 42 -999
2009-09-25 08:35:20 51°23.787 2°29.554 135.8 0.5 42 -999
2009-09-25 08:35:30 51°23.788 2°29.555 135.8 0.5 42 -999
2009-09-25 08:35:40 51°23.789 2°29.556 135.8 0.5 42 -999
2009-09-25 08:35:50 51°23.79 2°29.557 135.8 0.5 42 -999
2009-09-25 08:36:00 51°23.791 2°29.558 138.9 0.4 28 -999
2009-09-25 08:36:10 51°23.792 2°29.558 138.9 0.4 28 -999
2009-09-25 08:36:20 51°23.793 2°29.559 138.9 0.4 28 -999
2009-09-25 08:36:30 51°23.794 2°29.56 138.9 0.4 28 -999
2009-09-25 08:36:40 51°23.795 2°29.561 138.9 0.4 28 -999
2009-09-25 08:36:50 51°23.796 2°29.562 138.9 0.4 28 -999
2009-09-25 08:37:00 51°23.797 2°29.562 136.3 0.4 23 -999
2009-09-25 08:37:10 51°23.798 2°29.563 136.3 0.4 23 -999
2009-09-25 08:37:20 51°23.799 2°29.564 136.3 0.4 23 -999
2009-09-25 08:37:30 51°23.8 2°29.565 136.3 0.4 23 -999
2009-09-25 08:37:40 51°23.801 2°29.565 136.3 0.4 23 -999
2009-09-25 08:37:50 51°23.802 2°29.566 136.3 0.4 23 -999
2009-09-25 08:38:00 51°23.803 2°29.567 131.8 0.29 17 -999
2009-09-25 08:38:10 51°23.805 2°29.568 131.8 0.29 17 -999
2009-09-25 08:38:20 51°23.806 2°29.569 131.8 0.29 17 -999
2009-09-25 08:38:30 51°23.807 2°29.57 131.8 0.29 17 -999
2009-09-25 08:38:40 51°23.808 2°29.571 131.8 0.29 17 -999
2009-09-25 08:38:50 51°23.809 2°29.571 131.8 0.29 17 -999
2009-09-25 08:39:00 51°23.81 2°29.572 127.2 0.4 22 -999
2009-09-25 08:39:10 51°23.811 2°29.573 127.2 0.4 22 -999
2009-09-25 08:39:20 51°23.813 2°29.574 127.2 0.4 22 -999
2009-09-25 08:39:30 51°23.814 2°29.574 127.2 0.4 22 -999
2009-09-25 08:39:40 51°23.815 2°29.576 127.2 0.4 22 -999
2009-09-25 08:39:50 51°23.816 2°29.577 127.2 0.4 22 -999
2009-09-25 08:40:00 51°23.817 2°29.578 125.2 0.5 22 -999
2009-09-25 08:40:10 51°23.818 2°29.578 125.2 0.5 22 -999
2009-09-25 08:40:20 51°23.82 2°29.579 125.2 0.5 22 -999
2009-09-25 08:40:30 51°23.821 2°29.58 125.2 0.5 22 -999
2009-09-25 08:40:40 51°23.822 2°29.581 125.2 0.5 22 -999
2009-09-25 08:40:50 51°23.823 2°29.582 125.2 0.5 22 -999
2009-09-25 08:41:00 51°23.824 2°29.582 125 0.4 21 -999
2009-09-25 08:41:10 51°23.825 2°29.583 125 0.4 21 -999
2009-09-25 08:41:20 51°23.826 2°29.584 125 0.4 21 -999
2009-09-25 08:41:30 51°23.827 2°29.584 125 0.4 21 -999
2009-09-25 08:41:40 51°23.828 2°29.585 125 0.4 21 -999
2009-09-25 08:41:50 51°23.829 2°29.585 125 0.4 21 -999
2009-09-25 08:42:00 51°23.83 2°29.586 124.9 0.5 30 -999
2009-09-25 08:42:10 51°23.831 2°29.587 124.9 0.5 30 -999
2009-09-25 08:42:20 51°23.832 2°29.588 124.9 0.5 30 -999
2009-09-25 08:42:30 51°23.833 2°29.588 124.9 0.5 30 -999
2009-09-25 08:42:40 51°23.834 2°29.589 124.9 0.5 30 -999
2009-09-25 08:42:50 51°23.835 2°29.589 124.9 0.5 30 -999
2009-09-25 08:43:00 51°23.836 2°29.59 124.2 0.29 19 -999
2009-09-25 08:43:10 51°23.837 2°29.591 124.2 0.29 19 -999
2009-09-25 08:43:20 51°23.838 2°29.592 124.2 0.29 19 -999
2009-09-25 08:43:30 51°23.839 2°29.592 124.2 0.29 19 -999
2009-09-25 08:43:40 51°23.84 2°29.593 124.2 0.29 19 -999
2009-09-25 08:43:50 51°23.841 2°29.593 124.2 0.29 19 -999
2009-09-25 08:44:00 51°23.842 2°29.594 123.5 0.29 21 -999
2009-09-25 08:44:10 51°23.843 2°29.595 123.5 0.29 21 -999
2009-09-25 08:44:20 51°23.844 2°29.595 123.5 0.29 21 -999
2009-09-25 08:44:30 51°23.845 2°29.596 123.5 0.29 21 -999
2009-09-25 08:44:40 51°23.846 2°29.597 123.5 0.29 21 -999
2009-09-25 08:44:50 51°23.847 2°29.598 123.5 0.29 21 -999
2009-09-25 08:45:00 51°23.848 2°29.598 124 0.4 23 -999
2009-09-25 08:45:10 51°23.849 2°29.599 124 0.4 23 -999
2009-09-25 08:45:20 51°23.85 2°29.6 124 0.4 23 -999
2009-09-25 08:45:30 51°23.85 2°29.6 124 0.4 23 -999
2009-09-25 08:45:40 51°23.851 2°29.601 124 0.4 23 -999
2009-09-25 08:45:50 51°23.852 2°29.601 124 0.4 23 -999
2009-09-25 08:46:00 51°23.853 2°29.602 126.4 0.4 31 -999
2009-09-25 08:46:10 51°23.854 2°29.602 126.4 0.4 31 -999
2009-09-25 08:46:20 51°23.855 2°29.603 126.4 0.4 31 -999
2009-09-25 08:46:30 51°23.856 2°29.604 126.4 0.4 31 -999
2009-09-25 08:46:40 51°23.857 2°29.604 126.4 0.4 31 -999
2009-09-25 08:46:50 51°23.858 2°29.605 126.4 0.4 31 -999
2009-09-25 08:47:00 51°23.859 2°29.605 128 0.4 20 -999
2009-09-25 08:47:10 51°23.86 2°29.606 128 0.4 20 -999
2009-09-25 08:47:20 51°23.861 2°29.606 128 0.4 20 -999
2009-09-25 08:47:30 51°23.862 2°29.607 128 0.4 20 -999
2009-09-25 08:47:40 51°23.862 2°29.607 128 0.4 20 -999
2009-09-25 08:47:50 51°23.863 2°29.608 128 0.4 20 -999
2009-09-25 08:48:00 51°23.864 2°29.608 127.7 0.4 17 -999
2009-09-25 08:48:10 51°23.865 2°29.609 127.7 0.4 17 -999
2009-09-25 08:48:20 51°23.866 2°29.609 127.7 0.4 17 -999
2009-09-25 08:48:30 51°23.867 2°29.61 127.7 0.4 17 -999
2009-09-25 08:48:40 51°23.868 2°29.61 127.7 0.4 17 -999
2009-09-25 08:48:50 51°23.869 2°29.61 127.7 0.4 17 -999
2009-09-25 08:49:00 51°23.87 2°29.611 127.7 0.29 2 -999
2009-09-25 08:49:10 51°23.871 2°29.611 127.7 0.29 2 -999
2009-09-25 08:49:20 51°23.872 2°29.612 127.7 0.29 2 -999
2009-09-25 08:49:30 51°23.873 2°29.612 127.7 0.29 2 -999
2009-09-25 08:49:40 51°23.874 2°29.612 127.7 0.29 2 -999
2009-09-25 08:49:50 51°23.874 2°29.613 127.7 0.29 2 -999
2009-09-25 08:50:00 51°23.875 2°29.613 127.5 0.2 11 -999
2009-09-25 08:50:10 51°23.876 2°29.613 127.5 0.2 11 -999
2009-09-25 08:50:20 51°23.877 2°29.613 127.5 0.2 11 -999
2009-09-25 08:50:30 51°23.878 2°29.614 127.5 0.2 11 -999
2009-09-25 08:50:40 51°23.879 2°29.614 127.5 0.2 11 -999
2009-09-25 08:50:50 51°23.88 2°29.614 127.5 0.2 11 -999
2009-09-25 08:51:00 51°23.881 2°29.615 128 0.29 11 -999
2009-09-25 08:51:10 51°23.882 2°29.615 128 0.29 11 -999
2009-09-25 08:51:20 51°23.883 2°29.615 128 0.29 11 -999
2009-09-25 08:51:30 51°23.883 2°29.615 128 0.29 11 -999
2009-09-25 08:51:40 51°23.884 2°29.615 128 0.29 11 -999
2009-09-25 08:51:50 51°23.886 2°29.615 128 0.29 11 -999
2009-09-25 08:52:00 51°23.886 2°29.615 127 0.4 11 -999
2009-09-25 08:52:10 51°23.887 2°29.616 127 0.4 11 -999
2009-09-25 08:52:20 51°23.888 2°29.616 127 0.4 11 -999
2009-09-25 08:52:30 51°23.889 2°29.616 127 0.4 11 -999
2009-09-25 08:52:40 51°23.89 2°29.616 127 0.4 11 -999
2009-09-25 08:52:50 51°23.891 2°29.617 127 0.4 11 -999
2009-09-25 08:53:00 51°23.892 2°29.617 124.4 0.4 7 -999
2009-09-25 08:53:10 51°23.893 2°29.617 124.4 0.4 7 -999
2009-09-25 08:53:20 51°23.894 2°29.617 124.4 0.4 7 -999
2009-09-25 08:53:30 51°23.895 2°29.617 124.4 0.4 7 -999
2009-09-25 08:53:40 51°23.895 2°29.618 124.4 0.4 7 -999
2009-09-25 08:53:50 51°23.896 2°29.618 124.4 0.4 7 -999
2009-09-25 08:54:00 51°23.897 2°29.618 121.7 0.29 12 -999
2009-09-25 08:54:10 51°23.898 2°29.618 121.7 0.29 12 -999
2009-09-25 08:54:20 51°23.899 2°29.618 121.7 0.29 12 -999
2009-09-25 08:54:30 51°23.9 2°29.619 121.7 0.29 12 -999
2009-09-25 08:54:40 51°23.901 2°29.619 121.7 0.29 12 -999
2009-09-25 08:54:50 51°23.902 2°29.619 121.7 0.29 12 -999
2009-09-25 08:55:00 51°23.903 2°29.619 120.5 0.4 6 -999
2009-09-25 08:55:10 51°23.904 2°29.619 120.5 0.4 6 -999
2009-09-25 08:55:20 51°23.904 2°29.619 120.5 0.4 6 -999
2009-09-25 08:55:30 51°23.905 2°29.619 120.5 0.4 6 -999
2009-09-25 08:55:40 51°23.906 2°29.619 120.5 0.4 6 -999
2009-09-25 08:55:50 51°23.907 2°29.619 120.5 0.4 6 -999
2009-09-25 08:56:00 51°23.908 2°29.62 120.2 0.4 9 -999
2009-09-25 08:56:10 51°23.909 2°29.619 120.2 0.4 9 -999
2009-09-25 08:56:20 51°23.91 2°29.62 120.2 0.4 9 -999
2009-09-25 08:56:30 51°23.911 2°29.62 120.2 0.4 9 -999
2009-09-25 08:56:40 51°23.912 2°29.62 120.2 0.4 9 -999
2009-09-25 08:56:50 51°23.912 2°29.62 120.2 0.4 9 -999
2009-09-25 08:57:00 51°23.913 2°29.62 119.5 0.4 11 -999
2009-09-25 08:57:10 51°23.914 2°29.62 119.5 0.4 11 -999
2009-09-25 08:57:20 51°23.915 2°29.62 119.5 0.4 11 -999
2009-09-25 08:57:30 51°23.916 2°29.62 119.5 0.4 11 -999
2009-09-25 08:57:40 51°23.916 2°29.62 119.5 0.4 11 -999
2009-09-25 08:57:50 51°23.917 2°29.62 119.5 0.4 11 -999
2009-09-25 08:58:00 51°23.918 2°29.62 120.5 0.29 352 -999
2009-09-25 08:58:10 51°23.919 2°29.62 120.5 0.29 352 -999
2009-09-25 08:58:20 51°23.92 2°29.619 120.5 0.29 352 -999
2009-09-25 08:58:30 51°23.921 2°29.619 120.5 0.29 352 -999
2009-09-25 08:58:40 51°23.922 2°29.619 120.5 0.29 352 -999
2009-09-25 08:58:50 51°23.922 2°29.619 120.5 0.29 352 -999
2009-09-25 08:59:00 51°23.923 2°29.619 120.7 0.29 5 -999
2009-09-25 08:59:10 51°23.924 2°29.619 120.7 0.29 5 -999
2009-09-25 08:59:20 51°23.925 2°29.619 120.7 0.29 5 -999
2009-09-25 08:59:30 51°23.926 2°29.619 120.7 0.29 5 -999
2009-09-25 08:59:40 51°23.926 2°29.619 120.7 0.29 5 -999
2009-09-25 08:59:50 51°23.927 2°29.619 120.7 0.29 5 -999
2009-09-25 09:00:00 51°23.928 2°29.619 120.4 0.29 5 -999
2009-09-25 09:00:10 51°23.929 2°29.619 120.4 0.29 5 -999
2009-09-25 09:00:20 51°23.93 2°29.619 120.4 0.29 5 -999
2009-09-25 09:00:30 51°23.93 2°29.619 120.4 0.29 5 -999
2009-09-25 09:00:40 51°23.931 2°29.619 120.4 0.29 5 -999
2009-09-25 09:00:50 51°23.932 2°29.619 120.4 0.29 5 -999
2009-09-25 09:01:00 51°23.933 2°29.619 122.5 0.4 5 -999
2009-09-25 09:01:10 51°23.933 2°29.619 122.5 0.4 5 -999
2009-09-25 09:01:20 51°23.934 2°29.619 122.5 0.4 5 -999
2009-09-25 09:01:30 51°23.935 2°29.618 122.5 0.4 5 -999
2009-09-25 09:01:40 51°23.936 2°29.618 122.5 0.4 5 -999
2009-09-25 09:01:50 51°23.936 2°29.618 122.5 0.4 5 -999
2009-09-25 09:02:00 51°23.937 2°29.618 122.7 0.4 5 -999
2009-09-25 09:02:10 51°23.938 2°29.618 122.7 0.4 5 -999
2009-09-25 09:02:20 51°23.939 2°29.617 122.7 0.4 5 -999
2009-09-25 09:02:30 51°23.94 2°29.617 122.7 0.4 5 -999
2009-09-25 09:02:40 51°23.94 2°29.617 122.7 0.4 5 -999
2009-09-25 09:02:50 51°23.941 2°29.617 122.7 0.4 5 -999
2009-09-25 09:03:00 51°23.942 2°29.617 121.7 0.2 342 -999
2009-09-25 09:03:10 51°23.943 2°29.617 121.7 0.2 342 -999
2009-09-25 09:03:20 51°23.944 2°29.616 121.7 0.2 342 -999
2009-09-25 09:03:30 51°23.945 2°29.616 121.7 0.2 342 -999
2009-09-25 09:03:40 51°23.945 2°29.616 121.7 0.2 342 -999
2009-09-25 09:03:50 51°23.946 2°29.616 121.7 0.2 342 -999
2009-09-25 09:04:00 51°23.947 2°29.616 119.5 0.29 350 -999
2009-09-25 09:04:10 51°23.947 2°29.615 119.5 0.29 350 -999
2009-09-25 09:04:20 51°23.948 2°29.615 119.5 0.29 350 -999
2009-09-25 09:04:30 51°23.949 2°29.615 119.5 0.29 350 -999
2009-09-25 09:04:40 51°23.949 2°29.615 119.5 0.29 350 -999
2009-09-25 09:04:50 51°23.95 2°29.614 119.5 0.29 350 -999
2009-09-25 09:05:00 51°23.951 2°29.614 118.4 0.2 331 -999
2009-09-25 09:05:10 51°23.951 2°29.614 118.4 0.2 331 -999
2009-09-25 09:05:20 51°23.952 2°29.614 118.4 0.2 331 -999
2009-09-25 09:05:30 51°23.952 2°29.613 118.4 0.2 331 -999
2009-09-25 09:05:40 51°23.953 2°29.613 118.4 0.2 331 -999
2009-09-25 09:05:50 51°23.954 2°29.613 118.4 0.2 331 -999
2009-09-25 09:06:00 51°23.954 2°29.613 118.7 0.2 320 -999
2009-09-25 09:06:10 51°23.955 2°29.613 118.7 0.2 320 -999
2009-09-25 09:06:20 51°23.956 2°29.612 118.7 0.2 320 -999
2009-09-25 09:06:30 51°23.956 2°29.612 118.7 0.2 320 -999
2009-09-25 09:06:40 51°23.957 2°29.612 118.7 0.2 320 -999
2009-09-25 09:06:50 51°23.957 2°29.612 118.7 0.2 320 -999
2009-09-25 09:07:00 51°23.958 2°29.612 118.7 0.29 2 -999
2009-09-25 09:07:10 51°23.958 2°29.611 118.7 0.29 2 -999
2009-09-25 09:07:20 51°23.959 2°29.611 118.7 0.29 2 -999
2009-09-25 09:07:30 51°23.959 2°29.611 118.7 0.29 2 -999
2009-09-25 09:07:40 51°23.96 2°29.611 118.7 0.29 2 -999
2009-09-25 09:07:50 51°23.96 2°29.61 118.7 0.29 2 -999
2009-09-25 09:08:00 51°23.96 2°29.61 122.2 0.1 296 -999
2009-09-25 09:08:10 51°23.961 2°29.61 122.2 0.1 296 -999
2009-09-25 09:08:20 51°23.961 2°29.609 122.2 0.1 296 -999
2009-09-25 09:08:30 51°23.961 2°29.609 122.2 0.1 296 -999
2009-09-25 09:08:40 51°23.962 2°29.609 122.2 0.1 296 -999
2009-09-25 09:08:50 51°23.962 2°29.608 122.2 0.1 296 -999
2009-09-25 09:09:00 51°23.962 2°29.608 127.5 0.2 329 -999
2009-09-25 09:09:10 51°23.962 2°29.608 127.5 0.2 329 -999
2009-09-25 09:09:20 51°23.963 2°29.607 127.5 0.2 329 -999
2009-09-25 09:09:30 51°23.963 2°29.607 127.5 0.2 329 -999
2009-09-25 09:09:40 51°23.963 2°29.607 127.5 0.2 329 -999
2009-09-25 09:09:50 51°23.963 2°29.607 127.5 0.2 329 -999
2009-09-25 09:10:00 51°23.964 2°29.606 132.1 0.1 296 -999
2009-09-25 09:10:10 51°23.964 2°29.606 132.1 0.1 296 -999
2009-09-25 09:10:20 51°23.964 2°29.606 132.1 0.1 296 -999
2009-09-25 09:10:30 51°23.964 2°29.606 132.1 0.1 296 -999
2009-09-25 09:10:40 51°23.964 2°29.606 132.1 0.1 296 -999
2009-09-25 09:10:50 51°23.964 2°29.605 132.1 0.1 296 -999
2009-09-25 09:11:00 51°23.965 2°29.605 135.3 0.1 291 -999
2009-09-25 09:11:10 51°23.965 2°29.605 135.3 0.1 291 -999
2009-09-25 09:11:20 51°23.965 2°29.604 135.3 0.1 291 -999
2009-09-25 09:11:30 51°23.965 2°29.604 135.3 0.1 291 -999
2009-09-25 09:11:40 51°23.965 2°29.604 135.3 0.1 291 -999
2009-09-25 09:11:50 51°23.966 2°29.603 135.3 0.1 291 -999
2009-09-25 09:12:00 51°23.966 2°29.603 137 0.1 351 -999
2009-09-25 09:12:10 51°23.966 2°29.603 137 0.1 351 -999
2009-09-25 09:12:20 51°23.967 2°29.603 137 0.1 351 -999
2009-09-25 09:12:30 51°23.967 2°29.602 137 0.1 351 -999
2009-09-25 09:12:40 51°23.967 2°29.602 137 0.1 351 -999
2009-09-25 09:12:50 51°23.967 2°29.602 137 0.1 351 -999
2009-09-25 09:13:00 51°23.968 2°29.602 136.3 0.1 359 -999
2009-09-25 09:13:10 51°23.968 2°29.601 136.3 0.1 359 -999
2009-09-25 09:13:20 51°23.968 2°29.601 136.3 0.1 359 -999
2009-09-25 09:13:30 51°23.969 2°29.601 136.3 0.1 359 -999
2009-09-25 09:13:40 51°23.969 2°29.601 136.3 0.1 359 -999
2009-09-25 09:13:50 51°23.969 2°29.601 136.3 0.1 359 -999
2009-09-25 09:14:00 51°23.97 2°29.601 134.6 0.2 353 -999
2009-09-25 09:14:10 51°23.97 2°29.6 134.6 0.2 353 -999
2009-09-25 09:14:20 51°23.97 2°29.6 134.6 0.2 353 -999
2009-09-25 09:14:30 51°23.971 2°29.6 134.6 0.2 353 -999
2009-09-25 09:14:40 51°23.971 2°29.6 134.6 0.2 353 -999
2009-09-25 09:14:50 51°23.972 2°29.6 134.6 0.2 353 -999
2009-09-25 09:15:00 51°23.972 2°29.599 132.3 0.2 332 -999
2009-09-25 09:15:10 51°23.973 2°29.599 132.3 0.2 332 -999
2009-09-25 09:15:20 51°23.973 2°29.599 132.3 0.2 332 -999
2009-09-25 09:15:30 51°23.973 2°29.598 132.3 0.2 332 -999
2009-09-25 09:15:40 51°23.974 2°29.598 132.3 0.2 332 -999
2009-09-25 09:15:50 51°23.974 2°29.597 132.3 0.2 332 -999
2009-09-25 09:16:00 51°23.974 2°29.597 129.6 0.2 317 -999
2009-09-25 09:16:10 51°23.975 2°29.596 129.6 0.2 317 -999
2009-09-25 09:16:20 51°23.975 2°29.596 129.6 0.2 317 -999
2009-09-25 09:16:30 51°23.976 2°29.595 129.6 0.2 317 -999
2009-09-25 09:16:40 51°23.976 2°29.595 129.6 0.2 317 -999
2009-09-25 09:16:50 51°23.976 2°29.594 129.6 0.2 317 -999
2009-09-25 09:17:00 51°23.977 2°29.594 129.3 0.2 322 -999
2009-09-25 09:17:10 51°23.977 2°29.593 129.3 0.2 322 -999
2009-09-25 09:17:20 51°23.977 2°29.593 129.3 0.2 322 -999
2009-09-25 09:17:30 51°23.978 2°29.593 129.3 0.2 322 -999
2009-09-25 09:17:40 51°23.978 2°29.592 129.3 0.2 322 -999
2009-09-25 09:17:50 51°23.978 2°29.592 129.3 0.2 322 -999
2009-09-25 09:18:00 51°23.978 2°29.591 129.3 0.2 336 -999
2009-09-25 09:18:10 51°23.979 2°29.591 129.3 0.2 336 -999
2009-09-25 09:18:20 51°23.979 2°29.59 129.3 0.2 336 -999
2009-09-25 09:18:30 51°23.979 2°29.59 129.3 0.2 336 -999
2009-09-25 09:18:40 51°23.98 2°29.589 129.3 0.2 336 -999
2009-09-25 09:18:50 51°23.98 2°29.589 129.3 0.2 336 -999
2009-09-25 09:19:00 51°23.98 2°29.588 127.7 0.2 303 -999
2009-09-25 09:19:10 51°23.981 2°29.588 127.7 0.2 303 -999
2009-09-25 09:19:20 51°23.981 2°29.588 127.7 0.2 303 -999
2009-09-25 09:19:30 51°23.981 2°29.587 127.7 0.2 303 -999
2009-09-25 09:19:40 51°23.982 2°29.587 127.7 0.2 303 -999
2009-09-25 09:19:50 51°23.982 2°29.587 127.7 0.2 303 -999
2009-09-25 09:20:00 51°23.982 2°29.587 126.2 0.2 35 -999
2009-09-25 09:20:10 51°23.981 2°29.587 126.2 0.2 35 -999
2009-09-25 09:20:20 51°23.981 2°29.589 126.2 0.2 35 -999
2009-09-25 09:20:30 51°23.979 2°29.591 126.2 0.2 35 -999
2009-09-25 09:20:40 51°23.978 2°29.594 126.2 0.2 35 -999
2009-09-25 09:20:50 51°23.976 2°29.597 126.2 0.2 35 -999
2009-09-25 09:21:00 51°23.974 2°29.601 128.5 1.3 136 -999
2009-09-25 09:21:10 51°23.971 2°29.605 128.5 1.3 136 -999
2009-09-25 09:21:20 51°23.968 2°29.609 128.5 1.3 136 -999
2009-09-25 09:21:30 51°23.965 2°29.612 128.5 1.3 136 -999
2009-09-25 09:21:40 51°23.963 2°29.615 128.5 1.3 136 -999
2009-09-25 09:21:50 51°23.96 2°29.618 128.5 1.3 136 -999
2009-09-25 09:22:00 51°23.958 2°29.62 137.1 1 150 -999
2009-09-25 09:22:10 51°23.956 2°29.622 137.1 1 150 -999
2009-09-25 09:22:20 51°23.954 2°29.624 137.1 1 150 -999
2009-09-25 09:22:30 51°23.952 2°29.626 137.1 1 150 -999
2009-09-25 09:22:40 51°23.95 2°29.627 137.1 1 150 -999
2009-09-25 09:22:50 51°23.948 2°29.628 137.1 1 150 -999
2009-09-25 09:23:00 51°23.946 2°29.629 143.8 0.59 160 -999
2009-09-25 09:23:10 51°23.945 2°29.63 143.8 0.59 160 -999
2009-09-25 09:23:20 51°23.943 2°29.631 143.8 0.59 160 -999
2009-09-25 09:23:30 51°23.942 2°29.631 143.8 0.59 160 -999
2009-09-25 09:23:40 51°23.94 2°29.632 143.8 0.59 160 -999
2009-09-25 09:23:50 51°23.939 2°29.632 143.8 0.59 160 -999
2009-09-25 09:24:00 51°23.938 2°29.632 148.3 0.4 179 -999
2009-09-25 09:24:10 51°23.936 2°29.632 148.3 0.4 179 -999
2009-09-25 09:24:20 51°23.935 2°29.632 148.3 0.4 179 -999
2009-09-25 09:24:30 51°23.934 2°29.632 148.3 0.4 179 -999
2009-09-25 09:24:40 51°23.933 2°29.633 148.3 0.4 179 -999
2009-09-25 09:24:50 51°23.932 2°29.633 148.3 0.4 179 -999
2009-09-25 09:25:00 51°23.931 2°29.633 148.1 0.29 170 -999
2009-09-25 09:25:10 51°23.931 2°29.633 148.1 0.29 170 -999
2009-09-25 09:25:20 51°23.93 2°29.633 148.1 0.29 170 -999
2009-09-25 09:25:30 51°23.929 2°29.632 148.1 0.29 170 -999
2009-09-25 09:25:40 51°23.928 2°29.632 148.1 0.29 170 -999
2009-09-25 09:25:50 51°23.927 2°29.632 148.1 0.29 170 -999
2009-09-25 09:26:00 51°23.927 2°29.631 148.6 0.2 194 -999
2009-09-25 09:26:10 51°23.926 2°29.631 148.6 0.2 194 -999
2009-09-25 09:26:20 51°23.925 2°29.631 148.6 0.2 194 -999
2009-09-25 09:26:30 51°23.925 2°29.631 148.6 0.2 194 -999
2009-09-25 09:26:40 51°23.925 2°29.63 148.6 0.2 194 -999
2009-09-25 09:26:50 51°23.924 2°29.63 148.6 0.2 194 -999
2009-09-25 09:27:00 51°23.924 2°29.629 149.5 0.2 230 -999
2009-09-25 09:27:10 51°23.923 2°29.629 149.5 0.2 230 -999
2009-09-25 09:27:20 51°23.923 2°29.628 149.5 0.2 230 -999
2009-09-25 09:27:30 51°23.922 2°29.628 149.5 0.2 230 -999
2009-09-25 09:27:40 51°23.922 2°29.627 149.5 0.2 230 -999
2009-09-25 09:27:50 51°23.922 2°29.626 149.5 0.2 230 -999
2009-09-25 09:28:00 51°23.921 2°29.625 150.5 0.2 233 -999
2009-09-25 09:28:10 51°23.921 2°29.625 150.5 0.2 233 -999
2009-09-25 09:28:20 51°23.921 2°29.624 150.5 0.2 233 -999
2009-09-25 09:28:30 51°23.921 2°29.623 150.5 0.2 233 -999
2009-09-25 09:28:40 51°23.921 2°29.623 150.5 0.2 233 -999
2009-09-25 09:28:50 51°23.92 2°29.622 150.5 0.2 233 -999
2009-09-25 09:29:00 51°23.92 2°29.622 147.9 0.1 284 -999
2009-09-25 09:29:10 51°23.92 2°29.621 147.9 0.1 284 -999
2009-09-25 09:29:20 51°23.921 2°29.62 147.9 0.1 284 -999
2009-09-25 09:29:30 51°23.921 2°29.619 147.9 0.1 284 -999
2009-09-25 09:29:40 51°23.921 2°29.618 147.9 0.1 284 -999
2009-09-25 09:29:50 51°23.921 2°29.617 147.9 0.1 284 -999
2009-09-25 09:30:00 51°23.922 2°29.616 142.4 0.2 315 -999
2009-09-25 09:30:10 51°23.922 2°29.616 142.4 0.2 315 -999
2009-09-25 09:30:20 51°23.922 2°29.615 142.4 0.2 315 -999
2009-09-25 09:30:30 51°23.922 2°29.614 142.4 0.2 315 -999
2009-09-25 09:30:40 51°23.922 2°29.613 142.4 0.2 315 -999
2009-09-25 09:30:50 51°23.922 2°29.612 142.4 0.2 315 -999
2009-09-25 09:31:00 51°23.922 2°29.611 135.5 0.2 280 -999
2009-09-25 09:31:10 51°23.923 2°29.61 135.5 0.2 280 -999
2009-09-25 09:31:20 51°23.923 2°29.609 135.5 0.2 280 -999
2009-09-25 09:31:30 51°23.923 2°29.607 135.5 0.2 280 -999
2009-09-25 09:31:40 51°23.924 2°29.606 135.5 0.2 280 -999
2009-09-25 09:31:50 51°23.924 2°29.605 135.5 0.2 280 -999
2009-09-25 09:32:00 51°23.924 2°29.603 130 0.29 283 -999
2009-09-25 09:32:10 51°23.925 2°29.603 130 0.29 283 -999
2009-09-25 09:32:20 51°23.925 2°29.601 130 0.29 283 -999
2009-09-25 09:32:30 51°23.925 2°29.6 130 0.29 283 -999
2009-09-25 09:32:40 51°23.926 2°29.598 130 0.29 283 -999
2009-09-25 09:32:50 51°23.926 2°29.597 130 0.29 283 -999
2009-09-25 09:33:00 51°23.926 2°29.596 124.9 0.29 306 -999
2009-09-25 09:33:10 51°23.93 2°29.59 124.9 0.29 306 -999
2009-09-25 09:33:20 51°23.928 2°29.593 124.9 0.29 306 -999
2009-09-25 09:33:30 51°23.928 2°29.591 124.9 0.29 306 -999
2009-09-25 09:33:40 51°23.928 2°29.59 124.9 0.29 306 -999
2009-09-25 09:33:50 51°23.928 2°29.588 124.9 0.29 306 -999
2009-09-25 09:34:00 51°23.929 2°29.587 120.5 0.4 302 -999
2009-09-25 09:34:10 51°23.929 2°29.585 120.5 0.4 302 -999
2009-09-25 09:34:20 51°23.929 2°29.583 120.5 0.4 302 -999
2009-09-25 09:34:30 51°23.93 2°29.581 120.5 0.4 302 -999
2009-09-25 09:34:40 51°23.93 2°29.579 120.5 0.4 302 -999
2009-09-25 09:34:50 51°23.93 2°29.577 120.5 0.4 302 -999
2009-09-25 09:35:00 51°23.93 2°29.575 116 0.4 302 -999
2009-09-25 09:35:10 51°23.93 2°29.573 116 0.4 302 -999
2009-09-25 09:35:20 51°23.93 2°29.572 116 0.4 302 -999
2009-09-25 09:35:30 51°23.93 2°29.57 116 0.4 302 -999
2009-09-25 09:35:40 51°23.93 2°29.568 116 0.4 302 -999
2009-09-25 09:35:50 51°23.93 2°29.565 116 0.4 302 -999
2009-09-25 09:36:00 51°23.931 2°29.563 113.4 0.5 280 -999
2009-09-25 09:36:10 51°23.931 2°29.561 113.4 0.5 280 -999
2009-09-25 09:36:20 51°23.931 2°29.559 113.4 0.5 280 -999
2009-09-25 09:36:30 51°23.931 2°29.556 113.4 0.5 280 -999
2009-09-25 09:36:40 51°23.931 2°29.554 113.4 0.5 280 -999
2009-09-25 09:36:50 51°23.931 2°29.552 113.4 0.5 280 -999
2009-09-25 09:37:00 51°23.931 2°29.55 111.4 0.4 250 -999
2009-09-25 09:37:10 51°23.931 2°29.55 111.4 0.4 250 -999
2009-09-25 09:37:20 51°23.93 2°29.551 111.4 0.4 250 -999
2009-09-25 09:37:30 51°23.928 2°29.553 111.4 0.4 250 -999
2009-09-25 09:37:40 51°23.925 2°29.556 111.4 0.4 250 -999
2009-09-25 09:37:50 51°23.921 2°29.559 111.4 0.4 250 -999
2009-09-25 09:38:00 51°23.917 2°29.561 141.3 1.69 163 -999
2009-09-25 09:38:10 51°23.912 2°29.563 141.3 1.69 163 -999
2009-09-25 09:38:20 51°23.907 2°29.565 141.3 1.69 163 -999
2009-09-25 09:38:30 51°23.901 2°29.565 141.3 1.69 163 -999
2009-09-25 09:38:40 51°23.895 2°29.564 141.3 1.69 163 -999
2009-09-25 09:38:50 51°23.889 2°29.562 141.3 1.69 163 -999
2009-09-25 09:39:00 51°23.883 2°29.56 184.9 2.2 194 -999
2009-09-25 09:39:10 51°23.877 2°29.558 184.9 2.2 194 -999
2009-09-25 09:39:20 51°23.872 2°29.555 184.9 2.2 194 -999
2009-09-25 09:39:30 51°23.867 2°29.551 184.9 2.2 194 -999
2009-09-25 09:39:40 51°23.862 2°29.548 184.9 2.2 194 -999
2009-09-25 09:39:50 51°23.858 2°29.544 184.9 2.2 194 -999
2009-09-25 09:40:00 51°23.853 2°29.54 206.9 1.8 212 -999
2009-09-25 09:40:10 51°23.849 2°29.535 206.9 1.8 212 -999
2009-09-25 09:40:20 51°23.845 2°29.531 206.9 1.8 212 -999
2009-09-25 09:40:30 51°23.841 2°29.526 206.9 1.8 212 -999
2009-09-25 09:40:40 51°23.837 2°29.521 206.9 1.8 212 -999
2009-09-25 09:40:50 51°23.834 2°29.515 206.9 1.8 212 -999
2009-09-25 09:41:00 51°23.83 2°29.509 227.3 1.89 226 -999
2009-09-25 09:41:10 51°23.826 2°29.503 227.3 1.89 226 -999
2009-09-25 09:41:20 51°23.823 2°29.496 227.3 1.89 226 -999
2009-09-25 09:41:30 51°23.82 2°29.489 227.3 1.89 226 -999
2009-09-25 09:41:40 51°23.818 2°29.481 227.3 1.89 226 -999
2009-09-25 09:41:50 51°23.815 2°29.471 227.3 1.89 226 -999
2009-09-25 09:42:00 51°23.814 2°29.461 260 2.39 255 -999
2009-09-25 09:42:10 51°23.813 2°29.451 260 2.39 255 -999
2009-09-25 09:42:20 51°23.812 2°29.44 260 2.39 255 -999
2009-09-25 09:42:30 51°23.813 2°29.431 260 2.39 255 -999
2009-09-25 09:42:40 51°23.814 2°29.421 260 2.39 255 -999
2009-09-25 09:42:50 51°23.816 2°29.413 260 2.39 255 -999
2009-09-25 09:43:00 51°23.818 2°29.404 305.1 2 291 -999
2009-09-25 09:43:10 51°23.82 2°29.396 305.1 2 291 -999
2009-09-25 09:43:20 51°23.822 2°29.388 305.1 2 291 -999
2009-09-25 09:43:30 51°23.824 2°29.379 305.1 2 291 -999
2009-09-25 09:43:40 51°23.827 2°29.371 305.1 2 291 -999
2009-09-25 09:43:50 51°23.829 2°29.362 305.1 2 291 -999
2009-09-25 09:44:00 51°23.832 2°29.353 311.8 2.2 296 -999
2009-09-25 09:44:10 51°23.835 2°29.344 311.8 2.2 296 -999
2009-09-25 09:44:20 51°23.837 2°29.335 311.8 2.2 296 -999
2009-09-25 09:44:30 51°23.84 2°29.325 311.8 2.2 296 -999
2009-09-25 09:44:40 51°23.842 2°29.315 311.8 2.2 296 -999
2009-09-25 09:44:50 51°23.844 2°29.305 311.8 2.2 296 -999
2009-09-25 09:45:00 51°23.846 2°29.295 302.1 2.39 289 -999
2009-09-25 09:45:10 51°23.847 2°29.285 302.1 2.39 289 -999
2009-09-25 09:45:20 51°23.849 2°29.274 302.1 2.39 289 -999
2009-09-25 09:45:30 51°23.851 2°29.264 302.1 2.39 289 -999
2009-09-25 09:45:40 51°23.853 2°29.253 302.1 2.39 289 -999
2009-09-25 09:45:50 51°23.855 2°29.242 302.1 2.39 289 -999
2009-09-25 09:46:00 51°23.857 2°29.231 301.6 2.5 288 -999
2009-09-25 09:46:10 51°23.859 2°29.22 301.6 2.5 288 -999
2009-09-25 09:46:20 51°23.862 2°29.209 301.6 2.5 288 -999
2009-09-25 09:46:30 51°23.864 2°29.199 301.6 2.5 288 -999
2009-09-25 09:46:40 51°23.866 2°29.188 301.6 2.5 288 -999
2009-09-25 09:46:50 51°23.869 2°29.177 301.6 2.5 288 -999
2009-09-25 09:47:00 51°23.871 2°29.167 305.6 2.5 290 -999
2009-09-25 09:47:10 51°23.874 2°29.156 305.6 2.5 290 -999
2009-09-25 09:47:20 51°23.876 2°29.146 305.6 2.5 290 -999
2009-09-25 09:47:30 51°23.879 2°29.136 305.6 2.5 290 -999
2009-09-25 09:47:40 51°23.883 2°29.126 305.6 2.5 290 -999
2009-09-25 09:47:50 51°23.886 2°29.117 305.6 2.5 290 -999
2009-09-25 09:48:00 51°23.89 2°29.109 324.8 2.1 307 -999
2009-09-25 09:48:10 51°23.893 2°29.103 324.8 2.1 307 -999
2009-09-25 09:48:20 51°23.896 2°29.097 324.8 2.1 307 -999
2009-09-25 09:48:30 51°23.899 2°29.091 324.8 2.1 307 -999
2009-09-25 09:48:40 51°23.902 2°29.087 324.8 2.1 307 -999
2009-09-25 09:48:50 51°23.904 2°29.082 324.8 2.1 307 -999
2009-09-25 09:49:00 51°23.907 2°29.077 342.6 1.3 309 -999
2009-09-25 09:49:10 51°23.909 2°29.073 342.6 1.3 309 -999
2009-09-25 09:49:20 51°23.911 2°29.069 342.6 1.3 309 -999
2009-09-25 09:49:30 51°23.912 2°29.065 342.6 1.3 309 -999
2009-09-25 09:49:40 51°23.914 2°29.061 342.6 1.3 309 -999
2009-09-25 09:49:50 51°23.916 2°29.057 342.6 1.3 309 -999
2009-09-25 09:50:00 51°23.919 2°29.053 344.3 1.3 317 -999
2009-09-25 09:50:10 51°23.922 2°29.05 344.3 1.3 317 -999
2009-09-25 09:50:20 51°23.925 2°29.047 344.3 1.3 317 -999
2009-09-25 09:50:30 51°23.928 2°29.044 344.3 1.3 317 -999
2009-09-25 09:50:40 51°23.931 2°29.043 344.3 1.3 317 -999
2009-09-25 09:50:50 51°23.935 2°29.043 344.3 1.3 317 -999
2009-09-25 09:51:00 51°23.939 2°29.045 24 1.39 19 -999
2009-09-25 09:51:10 51°23.942 2°29.047 24 1.39 19 -999
2009-09-25 09:51:20 51°23.945 2°29.051 24 1.39 19 -999
2009-09-25 09:51:30 51°23.947 2°29.056 24 1.39 19 -999
2009-09-25 09:51:40 51°23.949 2°29.062 24 1.39 19 -999
2009-09-25 09:51:50 51°23.95 2°29.069 24 1.39 19 -999
2009-09-25 09:52:00 51°23.951 2°29.076 71.7 1.69 76 -999
2009-09-25 09:52:10 51°23.952 2°29.084 71.7 1.69 76 -999
2009-09-25 09:52:20 51°23.953 2°29.093 71.7 1.69 76 -999
2009-09-25 09:52:30 51°23.953 2°29.102 71.7 1.69 76 -999
2009-09-25 09:52:40 51°23.952 2°29.111 71.7 1.69 76 -999
2009-09-25 09:52:50 51°23.95 2°29.12 71.7 1.69 76 -999
2009-09-25 09:53:00 51°23.947 2°29.129 102.7 2.29 119 -999
2009-09-25 09:53:10 51°23.944 2°29.138 102.7 2.29 119 -999
2009-09-25 09:53:20 51°23.94 2°29.147 102.7 2.29 119 -999
2009-09-25 09:53:30 51°23.935 2°29.159 102.7 2.29 119 -999
2009-09-25 09:53:40 51°23.929 2°29.173 102.7 2.29 119 -999
2009-09-25 09:53:50 51°23.921 2°29.189 102.7 2.29 119 -999
2009-09-25 09:54:00 51°23.912 2°29.208 119.2 5.29 127 -999
2009-09-25 09:54:10 51°23.903 2°29.228 119.2 5.29 127 -999
2009-09-25 09:54:20 51°23.894 2°29.25 119.2 5.29 127 -999
2009-09-25 09:54:30 51°23.884 2°29.273 119.2 5.29 127 -999
2009-09-25 09:54:40 51°23.875 2°29.297 119.2 5.29 127 -999
2009-09-25 09:54:50 51°23.866 2°29.322 119.2 5.29 127 -999
2009-09-25 09:55:00 51°23.857 2°29.347 113.4 6.59 118 -999
2009-09-25 09:55:10 51°23.849 2°29.374 113.4 6.59 118 -999
2009-09-25 09:55:20 51°23.841 2°29.398 113.4 6.59 118 -999
2009-09-25 09:55:30 51°23.832 2°29.427 113.4 6.59 118 -999
2009-09-25 09:55:40 51°23.824 2°29.454 113.4 6.59 118 -999
2009-09-25 09:55:50 51°23.816 2°29.481 113.4 6.59 118 -999
2009-09-25 09:56:00 51°23.808 2°29.509 110 6.79 114 -999
2009-09-25 09:56:10 51°23.8 2°29.537 110 6.79 114 -999
2009-09-25 09:56:20 51°23.792 2°29.564 110 6.79 114 -999
2009-09-25 09:56:30 51°23.785 2°29.592 110 6.79 114 -999
2009-09-25 09:56:40 51°23.777 2°29.62 110 6.79 114 -999
2009-09-25 09:56:50 51°23.771 2°29.645 110 6.79 114 -999
2009-09-25 09:57:00 51°23.765 2°29.667 107.9 5.29 113 -999
2009-09-25 09:57:10 51°23.759 2°29.687 107.9 5.29 113 -999
2009-09-25 09:57:20 51°23.754 2°29.706 107.9 5.29 113 -999
2009-09-25 09:57:30 51°23.748 2°29.723 107.9 5.29 113 -999
2009-09-25 09:57:40 51°23.744 2°29.739 107.9 5.29 113 -999
2009-09-25 09:57:50 51°23.739 2°29.754 107.9 5.29 113 -999
2009-09-25 09:58:00 51°23.735 2°29.767 104.9 3.29 115 -999
2009-09-25 09:58:10 51°23.732 2°29.78 104.9 3.29 115 -999
2009-09-25 09:58:20 51°23.729 2°29.792 104.9 3.29 115 -999
2009-09-25 09:58:30 51°23.726 2°29.802 104.9 3.29 115 -999
2009-09-25 09:58:40 51°23.724 2°29.812 104.9 3.29 115 -999
2009-09-25 09:58:50 51°23.721 2°29.821 104.9 3.29 115 -999
2009-09-25 09:59:00 51°23.72 2°29.83 94.5 2 110 -999
2009-09-25 09:59:10 51°23.718 2°29.837 94.5 2 110 -999
2009-09-25 09:59:20 51°23.717 2°29.845 94.5 2 110 -999
2009-09-25 09:59:30 51°23.716 2°29.851 94.5 2 110 -999
2009-09-25 09:59:40 51°23.715 2°29.857 94.5 2 110 -999
2009-09-25 09:59:50 51°23.715 2°29.862 94.5 2 110 -999
2009-09-25 10:00:00 51°23.715 2°29.867 71.7 1.1 94 -999
2009-09-25 10:00:10 51°23.716 2°29.871 71.7 1.1 94 -999
2009-09-25 10:00:20 51°23.716 2°29.874 71.7 1.1 94 -999
2009-09-25 10:00:30 51°23.717 2°29.877 71.7 1.1 94 -999
2009-09-25 10:00:40 51°23.718 2°29.88 71.7 1.1 94 -999
2009-09-25 10:00:50 51°23.718 2°29.882 71.7 1.1 94 -999
2009-09-25 10:01:00 51°23.719 2°29.883 49.7 0.4 45 -999
2009-09-25 10:01:10 51°23.72 2°29.884 49.7 0.4 45 -999
2009-09-25 10:01:20 51°23.721 2°29.885 49.7 0.4 45 -999
2009-09-25 10:01:30 51°23.722 2°29.886 49.7 0.4 45 -999
2009-09-25 10:01:40 51°23.723 2°29.886 49.7 0.4 45 -999
2009-09-25 10:01:50 51°23.724 2°29.886 49.7 0.4 45 -999
2009-09-25 10:02:00 51°23.725 2°29.886 33.2 0.29 7 -999
2009-09-25 10:02:10 51°23.726 2°29.886 33.2 0.29 7 -999
2009-09-25 10:02:20 51°23.727 2°29.886 33.2 0.29 7 -999
2009-09-25 10:02:30 51°23.728 2°29.885 33.2 0.29 7 -999
2009-09-25 10:02:40 51°23.729 2°29.884 33.2 0.29 7 -999
2009-09-25 10:02:50 51°23.73 2°29.883 33.2 0.29 7 -999
2009-09-25 10:03:00 51°23.73 2°29.882 25.8 0.4 309 -999
2009-09-25 10:03:10 51°23.731 2°29.881 25.8 0.4 309 -999
2009-09-25 10:03:20 51°23.731 2°29.88 25.8 0.4 309 -999
2009-09-25 10:03:30 51°23.731 2°29.879 25.8 0.4 309 -999
2009-09-25 10:03:40 51°23.732 2°29.877 25.8 0.4 309 -999
2009-09-25 10:03:50 51°23.732 2°29.876 25.8 0.4 309 -999
2009-09-25 10:04:00 51°23.732 2°29.874 31.1 0.4 267 -999
2009-09-25 10:04:10 51°23.731 2°29.873 31.1 0.4 267 -999
2009-09-25 10:04:20 51°23.731 2°29.871 31.1 0.4 267 -999
2009-09-25 10:04:30 51°23.731 2°29.87 31.1 0.4 267 -999
2009-09-25 10:04:40 51°23.731 2°29.868 31.1 0.4 267 -999
2009-09-25 10:04:50 51°23.73 2°29.867 31.1 0.4 267 -999
2009-09-25 10:05:00 51°23.73 2°29.866 41.2 0.29 231 -999
2009-09-25 10:05:10 51°23.729 2°29.865 41.2 0.29 231 -999
2009-09-25 10:05:20 51°23.729 2°29.863 41.2 0.29 231 -999
2009-09-25 10:05:30 51°23.728 2°29.862 41.2 0.29 231 -999
2009-09-25 10:05:40 51°23.728 2°29.86 41.2 0.29 231 -999
2009-09-25 10:05:50 51°23.727 2°29.86 41.2 0.29 231 -999
2009-09-25 10:06:00 51°23.727 2°29.86 53.5 0.2 191 -999
2009-09-25 10:06:10 51°23.727 2°29.86 53.5 0.2 191 -999
2009-09-25 10:06:20 51°23.727 2°29.861 53.5 0.2 191 -999
2009-09-25 10:06:30 51°23.727 2°29.863 53.5 0.2 191 -999
2009-09-25 10:06:40 51°23.728 2°29.865 53.5 0.2 191 -999
2009-09-25 10:06:50 51°23.729 2°29.866 53.5 0.2 191 -999
2009-09-25 10:07:00 51°23.73 2°29.868 49.6 0.29 59 -999
2009-09-25 10:07:10 51°23.73 2°29.868 49.6 0.29 59 -999
2009-09-25 10:07:20 51°23.731 2°29.869 49.6 0.29 59 -999
2009-09-25 10:07:30 51°23.731 2°29.87 49.6 0.29 59 -999
2009-09-25 10:07:40 51°23.731 2°29.87 49.6 0.29 59 -999
2009-09-25 10:07:50 51°23.731 2°29.871 49.6 0.29 59 -999
2009-09-25 10:08:00 51°23.732 2°29.872 47.2 0.29 31 -999
2009-09-25 10:08:10 51°23.732 2°29.873 47.2 0.29 31 -999
2009-09-25 10:08:20 51°23.733 2°29.873 47.2 0.29 31 -999
2009-09-25 10:08:30 51°23.734 2°29.873 47.2 0.29 31 -999
2009-09-25 10:08:40 51°23.734 2°29.872 47.2 0.29 31 -999
2009-09-25 10:08:50 51°23.735 2°29.872 47.2 0.29 31 -999
2009-09-25 10:09:00 51°23.735 2°29.871 30.8 0.2 305 -999
2009-09-25 10:09:10 51°23.736 2°29.87 30.8 0.2 305 -999
2009-09-25 10:09:20 51°23.736 2°29.869 30.8 0.2 305 -999
2009-09-25 10:09:30 51°23.736 2°29.868 30.8 0.2 305 -999
2009-09-25 10:09:40 51°23.736 2°29.866 30.8 0.2 305 -999
2009-09-25 10:09:50 51°23.736 2°29.865 30.8 0.2 305 -999
2009-09-25 10:10:00 51°23.735 2°29.864 30 0.29 241 -999
2009-09-25 10:10:10 51°23.735 2°29.862 30 0.29 241 -999
2009-09-25 10:10:20 51°23.735 2°29.861 30 0.29 241 -999
2009-09-25 10:10:30 51°23.734 2°29.86 30 0.29 241 -999
2009-09-25 10:10:40 51°23.733 2°29.859 30 0.29 241 -999
2009-09-25 10:10:50 51°23.732 2°29.858 30 0.29 241 -999
2009-09-25 10:11:00 51°23.732 2°29.857 35.7 0.4 227 -999
2009-09-25 10:11:10 51°23.73 2°29.855 35.7 0.4 227 -999
2009-09-25 10:11:20 51°23.73 2°29.854 35.7 0.4 227 -999
2009-09-25 10:11:30 51°23.729 2°29.853 35.7 0.4 227 -999
2009-09-25 10:11:40 51°23.728 2°29.852 35.7 0.4 227 -999
2009-09-25 10:11:50 51°23.727 2°29.85 35.7 0.4 227 -999
2009-09-25 10:12:00 51°23.726 2°29.849 40.6 0.59 207 -999
2009-09-25 10:12:10 51°23.724 2°29.847 40.6 0.59 207 -999
2009-09-25 10:12:20 51°23.723 2°29.846 40.6 0.59 207 -999
2009-09-25 10:12:30 51°23.722 2°29.844 40.6 0.59 207 -999
2009-09-25 10:12:40 51°23.72 2°29.842 40.6 0.59 207 -999
2009-09-25 10:12:50 51°23.719 2°29.841 40.6 0.59 207 -999
2009-09-25 10:13:00 51°23.717 2°29.839 46.2 0.69 217 -999
2009-09-25 10:13:10 51°23.716 2°29.838 46.2 0.69 217 -999
2009-09-25 10:13:20 51°23.716 2°29.837 46.2 0.69 217 -999
2009-09-25 10:13:30 51°23.715 2°29.836 46.2 0.69 217 -999
2009-09-25 10:13:40 51°23.715 2°29.835 46.2 0.69 217 -999
2009-09-25 10:13:50 51°23.716 2°29.834 46.2 0.69 217 -999
2009-09-25 10:14:00 51°23.716 2°29.833 27.6 0.4 283 -999
2009-09-25 10:14:10 51°23.716 2°29.831 27.6 0.4 283 -999
2009-09-25 10:14:20 51°23.717 2°29.829 27.6 0.4 283 -999
2009-09-25 10:14:30 51°23.718 2°29.828 27.6 0.4 283 -999
2009-09-25 10:14:40 51°23.719 2°29.827 27.6 0.4 283 -999
2009-09-25 10:14:50 51°23.72 2°29.825 27.6 0.4 283 -999
2009-09-25 10:15:00 51°23.721 2°29.823 15.5 0.59 319 -999
2009-09-25 10:15:10 51°23.722 2°29.822 15.5 0.59 319 -999
2009-09-25 10:15:20 51°23.723 2°29.82 15.5 0.59 319 -999
2009-09-25 10:15:30 51°23.724 2°29.817 15.5 0.59 319 -999
2009-09-25 10:15:40 51°23.725 2°29.816 15.5 0.59 319 -999
2009-09-25 10:15:50 51°23.727 2°29.814 15.5 0.59 319 -999
2009-09-25 10:16:00 51°23.728 2°29.812 14 0.59 328 -999
2009-09-25 10:16:10 51°23.73 2°29.81 14 0.59 328 -999
2009-09-25 10:16:20 51°23.73 2°29.808 14 0.59 328 -999
2009-09-25 10:16:30 51°23.73 2°29.805 14 0.59 328 -999
2009-09-25 10:16:40 51°23.73 2°29.803 14 0.59 328 -999
2009-09-25 10:16:50 51°23.729 2°29.8 14 0.59 328 -999
2009-09-25 10:17:00 51°23.728 2°29.797 15.3 0.59 250 -999
2009-09-25 10:17:10 51°23.728 2°29.794 15.3 0.59 250 -999
2009-09-25 10:17:20 51°23.728 2°29.792 15.3 0.59 250 -999
2009-09-25 10:17:30 51°23.728 2°29.79 15.3 0.59 250 -999
2009-09-25 10:17:40 51°23.728 2°29.787 15.3 0.59 250 -999
2009-09-25 10:17:50 51°23.727 2°29.785 15.3 0.59 250 -999
2009-09-25 10:18:00 51°23.727 2°29.783 20.3 0.5 258 -999
2009-09-25 10:18:10 51°23.727 2°29.78 20.3 0.5 258 -999
2009-09-25 10:18:20 51°23.726 2°29.778 20.3 0.5 258 -999
2009-09-25 10:18:30 51°23.726 2°29.776 20.3 0.5 258 -999
2009-09-25 10:18:40 51°23.725 2°29.773 20.3 0.5 258 -999
2009-09-25 10:18:50 51°23.725 2°29.771 20.3 0.5 258 -999
2009-09-25 10:19:00 51°23.724 2°29.768 22.8 0.59 239 -999
2009-09-25 10:19:10 51°23.723 2°29.766 22.8 0.59 239 -999
2009-09-25 10:19:20 51°23.723 2°29.763 22.8 0.59 239 -999
2009-09-25 10:19:30 51°23.722 2°29.76 22.8 0.59 239 -999
2009-09-25 10:19:40 51°23.721 2°29.758 22.8 0.59 239 -999
2009-09-25 10:19:50 51°23.72 2°29.757 22.8 0.59 239 -999
2009-09-25 10:20:00 51°23.72 2°29.755 28.3 0.29 252 -999
2009-09-25 10:20:10 51°23.72 2°29.754 28.3 0.29 252 -999
2009-09-25 10:20:20 51°23.72 2°29.752 28.3 0.29 252 -999
2009-09-25 10:20:30 51°23.72 2°29.752 28.3 0.29 252 -999
2009-09-25 10:20:40 51°23.721 2°29.754 28.3 0.29 252 -999
2009-09-25 10:20:50 51°23.725 2°29.759 28.3 0.29 252 -999
2009-09-25 10:21:00 51°23.732 2°29.767 42.2 3.39 36 -999
2009-09-25 10:21:10 51°23.742 2°29.778 42.2 3.39 36 -999
2009-09-25 10:21:20 51°23.754 2°29.79 42.2 3.39 36 -999
2009-09-25 10:21:30 51°23.768 2°29.807 42.2 3.39 36 -999
2009-09-25 10:21:40 51°23.786 2°29.825 42.2 3.39 36 -999
2009-09-25 10:21:50 51°23.803 2°29.849 42.2 3.39 36 -999
2009-09-25 10:22:00 51°23.82 2°29.878 43.7 9.09 50 -999
2009-09-25 10:22:10 51°23.837 2°29.91 43.7 9.09 50 -999
2009-09-25 10:22:20 51°23.852 2°29.945 43.7 9.09 50 -999
2009-09-25 10:22:30 51°23.867 2°29.982 43.7 9.09 50 -999
2009-09-25 10:22:40 51°23.881 2°30.02 43.7 9.09 50 -999
2009-09-25 10:22:50 51°23.895 2°30.059 43.7 9.09 50 -999
2009-09-25 10:23:00 51°23.909 2°30.097 61 10 59 -999
2009-09-25 10:23:10 51°23.925 2°30.134 61 10 59 -999
2009-09-25 10:23:20 51°23.941 2°30.17 61 10 59 -999
2009-09-25 10:23:30 51°23.959 2°30.205 61 10 59 -999
2009-09-25 10:23:40 51°23.977 2°30.238 61 10 59 -999
2009-09-25 10:23:50 51°23.996 2°30.271 61 10 59 -999
2009-09-25 10:24:00 51°24.016 2°30.302 47.2 10.09 47 -999
2009-09-25 10:24:10 51°24.037 2°30.333 47.2 10.09 47 -999
2009-09-25 10:24:20 51°24.057 2°30.364 47.2 10.09 47 -999
2009-09-25 10:24:30 51°24.078 2°30.395 47.2 10.09 47 -999
2009-09-25 10:24:40 51°24.099 2°30.425 47.2 10.09 47 -999
2009-09-25 10:24:50 51°24.12 2°30.455 47.2 10.09 47 -999
2009-09-25 10:25:00 51°24.141 2°30.485 44.1 10.09 41 -999
2009-09-25 10:25:10 51°24.162 2°30.514 44.1 10.09 41 -999
2009-09-25 10:25:20 51°24.183 2°30.543 44.1 10.09 41 -999
2009-09-25 10:25:30 51°24.204 2°30.573 44.1 10.09 41 -999
2009-09-25 10:25:40 51°24.225 2°30.604 44.1 10.09 41 -999
2009-09-25 10:25:50 51°24.246 2°30.635 44.1 10.09 41 -999
2009-09-25 10:26:00 51°24.265 2°30.667 46.7 10.19 44 -999
2009-09-25 10:26:10 51°24.285 2°30.7 46.7 10.19 44 -999
2009-09-25 10:26:20 51°24.303 2°30.733 46.7 10.19 44 -999
2009-09-25 10:26:30 51°24.322 2°30.768 46.7 10.19 44 -999
2009-09-25 10:26:40 51°24.34 2°30.802 46.7 10.19 44 -999
2009-09-25 10:26:50 51°24.358 2°30.837 46.7 10.19 44 -999
2009-09-25 10:27:00 51°24.377 2°30.871 50.8 10.19 51 -999
2009-09-25 10:27:10 51°24.395 2°30.906 50.8 10.19 51 -999
2009-09-25 10:27:20 51°24.413 2°30.94 50.8 10.19 51 -999
2009-09-25 10:27:30 51°24.431 2°30.975 50.8 10.19 51 -999
2009-09-25 10:27:40 51°24.45 2°31.009 50.8 10.19 51 -999
2009-09-25 10:27:50 51°24.468 2°31.043 50.8 10.19 51 -999
2009-09-25 10:28:00 51°24.487 2°31.077 50.5 10.19 48 -999
2009-09-25 10:28:10 51°24.504 2°31.107 50.5 10.19 48 -999
2009-09-25 10:28:20 51°24.523 2°31.141 50.5 10.19 48 -999
2009-09-25 10:28:30 51°24.541 2°31.175 50.5 10.19 48 -999
2009-09-25 10:28:40 51°24.561 2°31.208 50.5 10.19 48 -999
2009-09-25 10:28:50 51°24.58 2°31.242 50.5 10.19 48 -999
2009-09-25 10:29:00 51°24.599 2°31.275 49.6 10.19 49 -999
2009-09-25 10:29:10 51°24.619 2°31.313 49.6 10.19 49 -999
2009-09-25 10:29:20 51°24.638 2°31.347 49.6 10.19 49 -999
2009-09-25 10:29:30 51°24.656 2°31.381 49.6 10.19 49 -999
2009-09-25 10:29:40 51°24.675 2°31.415 49.6 10.19 49 -999
2009-09-25 10:29:50 51°24.692 2°31.445 49.6 10.19 49 -999
2009-09-25 10:30:00 51°24.707 2°31.474 50.2 8.19 49 -999
2009-09-25 10:30:10 51°24.72 2°31.501 50.2 8.19 49 -999
2009-09-25 10:30:20 51°24.731 2°31.527 50.2 8.19 49 -999
2009-09-25 10:30:30 51°24.739 2°31.548 50.2 8.19 49 -999
2009-09-25 10:30:40 51°24.746 2°31.567 50.2 8.19 49 -999
2009-09-25 10:30:50 51°24.752 2°31.583 50.2 8.19 49 -999
2009-09-25 10:31:00 51°24.757 2°31.596 59.5 3.39 59 -999
2009-09-25 10:31:10 51°24.762 2°31.607 59.5 3.39 59 -999
2009-09-25 10:31:20 51°24.768 2°31.616 59.5 3.39 59 -999
2009-09-25 10:31:30 51°24.773 2°31.621 59.5 3.39 59 -999
2009-09-25 10:31:40 51°24.778 2°31.625 59.5 3.39 59 -999
2009-09-25 10:31:50 51°24.783 2°31.627 59.5 3.39 59 -999
2009-09-25 10:32:00 51°24.787 2°31.629 29.3 1.5 11 -999
2009-09-25 10:32:10 51°24.79 2°31.63 29.3 1.5 11 -999
2009-09-25 10:32:20 51°24.793 2°31.63 29.3 1.5 11 -999
2009-09-25 10:32:30 51°24.795 2°31.629 29.3 1.5 11 -999
2009-09-25 10:32:40 51°24.796 2°31.627 29.3 1.5 11 -999
2009-09-25 10:32:50 51°24.797 2°31.625 29.3 1.5 11 -999
2009-09-25 10:33:00 51°24.797 2°31.622 16.8 0.59 294 -999
2009-09-25 10:33:10 51°24.798 2°31.62 16.8 0.59 294 -999
2009-09-25 10:33:20 51°24.798 2°31.617 16.8 0.59 294 -999
2009-09-25 10:33:30 51°24.798 2°31.613 16.8 0.59 294 -999
2009-09-25 10:33:40 51°24.798 2°31.61 16.8 0.59 294 -999
2009-09-25 10:33:50 51°24.798 2°31.607 16.8 0.59 294 -999
2009-09-25 10:34:00 51°24.797 2°31.604 9.5 0.8 252 -999
2009-09-25 10:34:10 51°24.797 2°31.6 9.5 0.8 252 -999
2009-09-25 10:34:20 51°24.796 2°31.597 9.5 0.8 252 -999
2009-09-25 10:34:30 51°24.795 2°31.594 9.5 0.8 252 -999
2009-09-25 10:34:40 51°24.794 2°31.591 9.5 0.8 252 -999
2009-09-25 10:34:50 51°24.793 2°31.587 9.5 0.8 252 -999
2009-09-25 10:35:00 51°24.792 2°31.584 10.4 0.8 239 -999
2009-09-25 10:35:10 51°24.791 2°31.582 10.4 0.8 239 -999
2009-09-25 10:35:20 51°24.79 2°31.578 10.4 0.8 239 -999
2009-09-25 10:35:30 51°24.789 2°31.575 10.4 0.8 239 -999
2009-09-25 10:35:40 51°24.788 2°31.571 10.4 0.8 239 -999
2009-09-25 10:35:50 51°24.786 2°31.568 10.4 0.8 239 -999
2009-09-25 10:36:00 51°24.785 2°31.565 9.9 0.9 233 -999
2009-09-25 10:36:10 51°24.783 2°31.562 9.9 0.9 233 -999
2009-09-25 10:36:20 51°24.782 2°31.558 9.9 0.9 233 -999
2009-09-25 10:36:30 51°24.78 2°31.554 9.9 0.9 233 -999
2009-09-25 10:36:40 51°24.778 2°31.552 9.9 0.9 233 -999
2009-09-25 10:36:50 51°24.776 2°31.548 9.9 0.9 233 -999
2009-09-25 10:37:00 51°24.774 2°31.545 13.1 1.1 229 -999
2009-09-25 10:37:10 51°24.771 2°31.542 13.1 1.1 229 -999
2009-09-25 10:37:20 51°24.769 2°31.539 13.1 1.1 229 -999
2009-09-25 10:37:30 51°24.767 2°31.536 13.1 1.1 229 -999
2009-09-25 10:37:40 51°24.765 2°31.532 13.1 1.1 229 -999
2009-09-25 10:37:50 51°24.763 2°31.529 13.1 1.1 229 -999
2009-09-25 10:38:00 51°24.761 2°31.526 16.3 1.1 225 -999
2009-09-25 10:38:10 51°24.759 2°31.524 16.3 1.1 225 -999
2009-09-25 10:38:20 51°24.756 2°31.521 16.3 1.1 225 -999
2009-09-25 10:38:30 51°24.753 2°31.517 16.3 1.1 225 -999
2009-09-25 10:38:40 51°24.751 2°31.514 16.3 1.1 225 -999
2009-09-25 10:38:50 51°24.749 2°31.511 16.3 1.1 225 -999
2009-09-25 10:39:00 51°24.746 2°31.508 21.3 1.1 222 -999
2009-09-25 10:39:10 51°24.744 2°31.505 21.3 1.1 222 -999
2009-09-25 10:39:20 51°24.741 2°31.501 21.3 1.1 222 -999
2009-09-25 10:39:30 51°24.739 2°31.498 21.3 1.1 222 -999
2009-09-25 10:39:40 51°24.737 2°31.494 21.3 1.1 222 -999
2009-09-25 10:39:50 51°24.734 2°31.491 21.3 1.1 222 -999
2009-09-25 10:40:00 51°24.731 2°31.488 26.8 1.19 218 -999
2009-09-25 10:40:10 51°24.729 2°31.485 26.8 1.19 218 -999
2009-09-25 10:40:20 51°24.726 2°31.481 26.8 1.19 218 -999
2009-09-25 10:40:30 51°24.724 2°31.478 26.8 1.19 218 -999
2009-09-25 10:40:40 51°24.722 2°31.474 26.8 1.19 218 -999
2009-09-25 10:40:50 51°24.719 2°31.47 26.8 1.19 218 -999
2009-09-25 10:41:00 51°24.716 2°31.467 33.7 1.3 215 -999
2009-09-25 10:41:10 51°24.713 2°31.464 33.7 1.3 215 -999
2009-09-25 10:41:20 51°24.71 2°31.46 33.7 1.3 215 -999
2009-09-25 10:41:30 51°24.708 2°31.457 33.7 1.3 215 -999
2009-09-25 10:41:40 51°24.705 2°31.452 33.7 1.3 215 -999
2009-09-25 10:41:50 51°24.702 2°31.449 33.7 1.3 215 -999
2009-09-25 10:42:00 51°24.699 2°31.445 42.8 1.39 218 -999
2009-09-25 10:42:10 51°24.696 2°31.441 42.8 1.39 218 -999
2009-09-25 10:42:20 51°24.693 2°31.437 42.8 1.39 218 -999
2009-09-25 10:42:30 51°24.69 2°31.433 42.8 1.39 218 -999
2009-09-25 10:42:40 51°24.687 2°31.429 42.8 1.39 218 -999
2009-09-25 10:42:50 51°24.684 2°31.425 42.8 1.39 218 -999
2009-09-25 10:43:00 51°24.681 2°31.421 53.5 1.39 220 -999
2009-09-25 10:43:10 51°24.678 2°31.416 53.5 1.39 220 -999
2009-09-25 10:43:20 51°24.675 2°31.412 53.5 1.39 220 -999
2009-09-25 10:43:30 51°24.672 2°31.408 53.5 1.39 220 -999
2009-09-25 10:43:40 51°24.669 2°31.404 53.5 1.39 220 -999
2009-09-25 10:43:50 51°24.666 2°31.4 53.5 1.39 220 -999
2009-09-25 10:44:00 51°24.663 2°31.396 61.1 1.39 219 -999
2009-09-25 10:44:10 51°24.66 2°31.392 61.1 1.39 219 -999
2009-09-25 10:44:20 51°24.657 2°31.387 61.1 1.39 219 -999
2009-09-25 10:44:30 51°24.654 2°31.383 61.1 1.39 219 -999
2009-09-25 10:44:40 51°24.651 2°31.379 61.1 1.39 219 -999
2009-09-25 10:44:50 51°24.648 2°31.375 61.1 1.39 219 -999
2009-09-25 10:45:00 51°24.645 2°31.371 67.7 1.39 228 -999
2009-09-25 10:45:10 51°24.642 2°31.367 67.7 1.39 228 -999
2009-09-25 10:45:20 51°24.639 2°31.362 67.7 1.39 228 -999
2009-09-25 10:45:30 51°24.636 2°31.358 67.7 1.39 228 -999
2009-09-25 10:45:40 51°24.633 2°31.354 67.7 1.39 228 -999
2009-09-25 10:45:50 51°24.63 2°31.35 67.7 1.39 228 -999
2009-09-25 10:46:00 51°24.627 2°31.345 72.2 1.39 223 -999
2009-09-25 10:46:10 51°24.624 2°31.341 72.2 1.39 223 -999
2009-09-25 10:46:20 51°24.621 2°31.337 72.2 1.39 223 -999
2009-09-25 10:46:30 51°24.618 2°31.332 72.2 1.39 223 -999
2009-09-25 10:46:40 51°24.615 2°31.328 72.2 1.39 223 -999